createdAt,value
2023-08-11T00:02:12.367Z,101110.66
2023-08-11T00:04:38.579Z,101103.97
2023-08-11T00:07:04.846Z,101123.31
2023-08-11T00:09:31.046Z,101119.00
2023-08-11T00:11:57.262Z,101120.66
2023-08-11T00:14:23.466Z,101112.97
2023-08-11T00:16:49.681Z,101114.81
2023-08-11T00:19:15.881Z,101116.63
2023-08-11T00:21:42.060Z,101116.78
2023-08-11T00:24:08.265Z,101124.13
2023-08-11T00:26:34.485Z,101127.88
2023-08-11T00:29:00.661Z,101127.78
2023-08-11T00:31:26.926Z,101125.97
2023-08-11T00:33:53.169Z,101136.56
2023-08-11T00:36:19.349Z,101132.34
2023-08-11T00:38:45.579Z,101139.63
2023-08-11T00:41:11.748Z,101139.03
2023-08-11T00:43:37.997Z,101147.91
2023-08-11T00:46:04.238Z,101140.31
2023-08-11T00:48:30.436Z,101137.06
2023-08-11T00:50:56.629Z,101140.72
2023-08-11T00:53:22.864Z,101140.72
2023-08-11T00:55:49.093Z,101143.44
2023-08-11T00:58:15.311Z,101145.28
2023-08-11T01:00:41.532Z,101137.59
2023-08-11T01:03:07.835Z,101140.88
2023-08-11T01:05:34.067Z,101140.94
2023-08-11T01:08:00.304Z,101141.97
2023-08-11T01:10:26.520Z,101140.34
2023-08-11T01:12:52.748Z,101135.09
2023-08-11T01:15:18.988Z,101136.81
2023-08-11T01:17:45.213Z,101140.34
2023-08-11T01:20:11.489Z,101132.63
2023-08-11T01:22:37.680Z,101134.66
2023-08-11T01:25:03.851Z,101132.81
2023-08-11T01:27:30.053Z,101131.44
2023-08-11T01:29:56.262Z,101124.50
2023-08-11T01:32:22.497Z,101128.19
2023-08-11T01:34:48.684Z,101126.69
2023-08-11T01:37:14.905Z,101126.59
2023-08-11T01:39:41.152Z,101128.53
2023-08-11T01:42:07.375Z,101132.91
2023-08-11T01:44:33.589Z,101126.69
2023-08-11T01:46:59.897Z,101128.38
2023-08-11T01:49:26.138Z,101131.25
2023-08-11T01:51:52.348Z,101133.94
2023-08-11T01:54:18.544Z,101133.63
2023-08-11T01:56:44.736Z,101126.56
2023-08-11T01:59:10.917Z,101123.06
2023-08-11T02:01:37.185Z,101123.44
2023-08-11T02:04:05.094Z,101123.75
2023-08-11T02:06:31.352Z,101115.97
2023-08-11T02:08:57.582Z,101120.59
2023-08-11T02:11:25.038Z,101121.63
2023-08-11T02:13:51.227Z,101125.84
2023-08-11T02:16:17.537Z,101124.44
2023-08-11T02:18:43.777Z,101121.03
2023-08-11T02:21:09.977Z,101126.44
2023-08-11T02:23:36.165Z,101118.38
2023-08-11T02:26:02.450Z,101119.13
2023-08-11T02:28:28.708Z,101120.22
2023-08-11T02:30:54.883Z,101120.22
2023-08-11T02:33:21.086Z,101119.19
2023-08-11T02:35:47.313Z,101116.13
2023-08-11T02:38:13.551Z,101119.59
2023-08-11T02:40:39.724Z,101115.19
2023-08-11T02:43:05.915Z,101124.84
2023-08-11T02:45:32.171Z,101122.38
2023-08-11T02:47:58.471Z,101115.41
2023-08-11T02:50:24.774Z,101120.66
2023-08-11T02:52:51.084Z,101116.50
2023-08-11T02:55:17.305Z,101106.06
2023-08-11T02:57:43.504Z,101110.31
2023-08-11T03:00:09.729Z,101109.53
2023-08-11T03:02:36.065Z,101105.25
2023-08-11T03:05:02.353Z,101105.25
2023-08-11T03:07:28.549Z,101107.25
2023-08-11T03:09:54.768Z,101108.22
2023-08-11T03:12:20.978Z,101105.91
2023-08-11T03:14:47.172Z,101108.69
2023-08-11T03:17:13.351Z,101105.28
2023-08-11T03:19:39.546Z,101109.81
2023-08-11T03:22:06.110Z,101102.09
2023-08-11T03:24:32.664Z,101107.44
2023-08-11T03:26:58.859Z,101105.88
2023-08-11T03:29:25.048Z,101103.78
2023-08-11T03:31:51.263Z,101106.25
2023-08-11T03:34:17.511Z,101115.06
2023-08-11T03:36:43.724Z,101117.69
2023-08-11T03:39:09.988Z,101114.13
2023-08-11T03:41:36.224Z,101116.81
2023-08-11T03:44:02.427Z,101118.53
2023-08-11T03:46:28.749Z,101110.69
2023-08-11T03:48:55.127Z,101111.38
2023-08-11T03:51:21.399Z,101114.00
2023-08-11T03:53:47.586Z,101116.31
2023-08-11T03:56:13.787Z,101118.84
2023-08-11T03:58:40.049Z,101119.38
2023-08-11T04:01:06.286Z,101128.16
2023-08-11T04:03:32.693Z,101133.56
2023-08-11T04:05:59.010Z,101129.28
2023-08-11T04:08:25.189Z,101124.28
2023-08-11T04:10:51.398Z,101129.59
2023-08-11T04:13:17.654Z,101127.84
2023-08-11T04:15:43.892Z,101129.53
2023-08-11T04:18:10.202Z,101126.97
2023-08-11T04:20:36.402Z,101127.84
2023-08-11T04:23:02.581Z,101133.97
2023-08-11T04:25:28.799Z,101134.69
2023-08-11T04:27:55.012Z,101129.44
2023-08-11T04:30:21.247Z,101128.41
2023-08-11T04:32:47.518Z,101129.94
2023-08-11T04:35:15.177Z,101124.41
2023-08-11T04:37:41.421Z,101119.88
2023-08-11T04:40:07.691Z,101124.19
2023-08-11T04:42:33.905Z,101114.47
2023-08-11T04:45:00.148Z,101123.19
2023-08-11T04:47:26.432Z,101123.94
2023-08-11T04:49:52.623Z,101124.03
2023-08-11T04:52:18.835Z,101131.47
2023-08-11T04:54:45.053Z,101134.56
2023-08-11T04:57:11.236Z,101131.84
2023-08-11T04:59:37.500Z,101132.41
2023-08-11T05:02:03.803Z,101138.41
2023-08-11T05:04:30.042Z,101138.09
2023-08-11T05:06:56.257Z,101145.75
2023-08-11T05:09:22.518Z,101143.69
2023-08-11T05:11:48.750Z,101135.41
2023-08-11T05:14:14.946Z,101140.25
2023-08-11T05:16:41.257Z,101140.63
2023-08-11T05:19:07.568Z,101152.50
2023-08-11T05:21:33.786Z,101152.94
2023-08-11T05:24:00.000Z,101154.34
2023-08-11T05:26:26.224Z,101155.69
2023-08-11T05:28:52.437Z,101156.00
2023-08-11T05:31:18.784Z,101162.38
2023-08-11T05:33:45.051Z,101164.28
2023-08-11T05:36:11.236Z,101170.75
2023-08-11T05:38:37.481Z,101163.88
2023-08-11T05:41:03.723Z,101168.34
2023-08-11T05:43:30.092Z,101168.50
2023-08-11T05:45:56.324Z,101163.34
2023-08-11T05:48:22.524Z,101161.25
2023-08-11T05:50:48.730Z,101162.59
2023-08-11T05:53:14.954Z,101168.00
2023-08-11T05:55:41.202Z,101173.38
2023-08-11T05:58:09.663Z,101173.19
2023-08-11T06:00:35.958Z,101181.28
2023-08-11T06:03:02.300Z,101176.38
2023-08-11T06:05:28.563Z,101183.03
2023-08-11T06:08:05.068Z,101175.44
2023-08-11T06:10:33.836Z,101166.66
2023-08-11T06:13:00.147Z,101164.66
2023-08-11T06:15:26.347Z,101160.56
2023-08-11T06:17:52.609Z,101165.69
2023-08-11T06:20:30.057Z,101170.03
2023-08-11T06:23:01.141Z,101163.38
2023-08-11T06:25:27.343Z,101165.06
2023-08-11T06:27:53.584Z,101171.75
2023-08-11T06:30:19.799Z,101167.91
2023-08-11T06:32:46.089Z,101159.25
2023-08-11T06:35:12.328Z,101152.97
2023-08-11T06:37:40.374Z,101157.03
2023-08-11T06:40:06.573Z,101156.56
2023-08-11T06:42:32.786Z,101156.28
2023-08-11T06:44:59.047Z,101158.94
2023-08-11T06:47:25.281Z,101154.75
2023-08-11T06:49:51.524Z,101152.13
2023-08-11T06:52:17.750Z,101156.34
2023-08-11T06:54:43.934Z,101147.72
2023-08-11T06:57:10.784Z,101155.66
2023-08-11T06:59:37.412Z,101149.13
2023-08-11T07:02:03.615Z,101154.97
2023-08-11T07:04:29.826Z,101150.75
2023-08-11T07:32:44.358Z,101167.75
2023-08-11T07:35:10.597Z,101176.91
2023-08-11T07:37:36.842Z,101172.34
2023-08-11T07:40:03.125Z,101171.44
2023-08-11T07:42:29.360Z,101175.94
2023-08-11T07:44:55.618Z,101172.41
2023-08-11T07:47:21.904Z,101179.34
2023-08-11T07:49:48.153Z,101171.78
2023-08-11T07:52:14.389Z,101177.38
2023-08-11T07:54:40.748Z,101178.25
2023-08-11T07:57:07.329Z,101179.25
2023-08-11T07:59:33.784Z,101182.50
2023-08-11T08:02:00.142Z,101172.06
2023-08-11T08:04:26.391Z,101176.59
2023-08-11T08:06:52.595Z,101175.63
2023-08-11T08:09:18.823Z,101177.16
2023-08-11T08:11:45.190Z,101173.53
2023-08-11T08:14:11.561Z,101168.81
2023-08-11T08:16:37.847Z,101168.94
2023-08-11T08:19:04.103Z,101166.41
2023-08-11T08:21:30.369Z,101160.22
2023-08-11T08:23:56.601Z,101163.88
2023-08-11T08:26:22.923Z,101163.72
2023-08-11T08:28:49.208Z,101148.91
2023-08-11T08:31:15.433Z,101158.41
2023-08-11T08:33:41.647Z,101156.03
2023-08-11T08:36:08.040Z,101151.00
2023-08-11T08:38:34.321Z,101149.84
2023-08-11T08:41:00.516Z,101147.72
2023-08-11T08:43:26.760Z,101148.56
2023-08-11T08:45:53.006Z,101139.13
2023-08-11T08:48:19.251Z,101144.16
2023-08-11T08:50:45.488Z,101141.28
2023-08-11T08:53:11.733Z,101135.66
2023-08-11T08:55:37.991Z,101137.28
2023-08-11T08:58:04.213Z,101129.88
2023-08-11T09:00:30.460Z,101136.22
2023-08-11T09:02:56.792Z,101136.44
2023-08-11T09:05:23.118Z,101140.00
2023-08-11T09:07:49.380Z,101129.84
2023-08-11T09:10:15.599Z,101138.09
2023-08-11T09:12:41.856Z,101124.59
2023-08-11T09:15:08.162Z,101120.09
2023-08-11T09:17:34.479Z,101134.97
2023-08-11T09:20:00.803Z,101124.22
2023-08-11T09:22:27.056Z,101132.53
2023-08-11T09:24:53.270Z,101122.25
2023-08-11T09:27:19.593Z,101123.94
2023-08-11T09:29:45.911Z,101119.31
2023-08-11T09:32:12.266Z,101121.34
2023-08-11T09:34:38.656Z,101126.59
2023-08-11T09:37:04.948Z,101114.16
2023-08-11T09:39:31.200Z,101120.75
2023-08-11T09:41:57.471Z,101125.69
2023-08-11T09:44:25.020Z,101123.31
2023-08-11T09:46:51.808Z,101115.94
2023-08-11T09:49:18.169Z,101109.31
2023-08-11T09:51:44.417Z,101110.34
2023-08-11T09:54:10.698Z,101111.16
2023-08-11T09:56:36.960Z,101102.97
2023-08-11T09:59:03.216Z,101115.41
2023-08-11T10:01:29.629Z,101112.22
2023-08-11T10:03:55.963Z,101106.50
2023-08-11T10:06:22.255Z,101108.66
2023-08-11T10:08:48.489Z,101089.03
2023-08-11T10:11:15.673Z,101093.38
2023-08-11T10:13:42.003Z,101111.50
2023-08-11T10:16:08.362Z,101092.72
2023-08-11T10:18:34.615Z,101094.06
2023-08-11T10:21:00.853Z,101101.97
2023-08-11T10:23:27.168Z,101099.75
2023-08-11T10:25:53.456Z,101096.91
2023-08-11T10:28:19.719Z,101104.16
2023-08-11T10:30:45.967Z,101111.19
2023-08-11T10:33:12.246Z,101100.78
2023-08-11T10:35:38.601Z,101099.13
2023-08-11T10:38:04.834Z,101096.03
2023-08-11T10:40:31.060Z,101084.31
2023-08-11T10:42:57.304Z,101071.25
2023-08-11T10:45:23.562Z,101093.72
2023-08-11T10:47:49.793Z,101082.75
2023-08-11T10:50:16.076Z,101080.47
2023-08-11T10:52:42.299Z,101071.59
2023-08-11T10:55:08.581Z,101076.13
2023-08-11T10:57:34.866Z,101075.41
2023-08-11T11:00:01.136Z,101079.91
2023-08-11T11:02:27.489Z,101071.75
2023-08-11T11:04:53.791Z,101064.19
2023-08-11T11:07:20.094Z,101042.44
2023-08-11T11:09:46.316Z,101060.09
2023-08-11T11:12:13.013Z,101053.97
2023-08-11T11:14:39.497Z,101053.00
2023-08-11T11:17:05.852Z,101045.06
2023-08-11T11:19:32.176Z,101040.09
2023-08-11T11:21:58.451Z,101041.78
2023-08-11T11:24:25.017Z,101033.13
2023-08-11T11:26:52.538Z,101023.63
2023-08-11T11:29:18.824Z,101019.97
2023-08-11T11:31:45.296Z,101020.69
2023-08-11T11:34:11.564Z,101016.28
2023-08-11T11:36:38.091Z,101022.28
2023-08-11T11:39:05.989Z,101020.81
2023-08-11T11:41:32.635Z,101017.91
2023-08-11T11:43:58.866Z,101019.22
2023-08-11T11:46:31.498Z,101010.00
2023-08-11T11:48:57.884Z,101027.09
2023-08-11T11:51:24.150Z,101012.81
2023-08-11T11:53:50.442Z,101002.31
2023-08-11T11:56:16.743Z,101013.91
2023-08-11T11:58:43.058Z,101008.16
2023-08-11T12:01:09.313Z,101007.03
2023-08-11T12:03:35.712Z,100999.28
2023-08-11T12:06:02.168Z,101004.59
2023-08-11T12:08:28.516Z,101000.19
2023-08-11T12:10:54.844Z,101007.97
2023-08-11T12:13:21.239Z,101005.56
2023-08-11T12:15:47.510Z,101020.13
2023-08-11T12:18:13.800Z,101014.56
2023-08-11T12:20:40.088Z,101006.59
2023-08-11T12:23:06.362Z,101024.22
2023-08-11T12:25:33.555Z,101014.75
2023-08-11T12:27:59.829Z,101008.88
2023-08-11T12:30:26.081Z,101010.09
2023-08-11T12:32:52.440Z,101015.41
2023-08-11T12:35:18.777Z,101010.41
2023-08-11T12:37:45.087Z,101006.69
2023-08-11T12:40:11.368Z,101008.53
2023-08-11T12:42:37.662Z,101012.16
2023-08-11T12:45:03.950Z,101015.38
2023-08-11T12:47:30.270Z,101019.06
2023-08-11T12:49:56.502Z,101005.34
2023-08-11T12:52:22.719Z,101008.75
2023-08-11T12:54:48.963Z,100989.06
2023-08-11T12:57:15.252Z,101000.53
2023-08-11T12:59:41.713Z,100994.09
2023-08-11T13:02:08.200Z,100991.25
2023-08-11T13:04:34.919Z,100993.75
2023-08-11T13:07:01.229Z,100983.38
2023-08-11T13:09:27.507Z,100989.47
2023-08-11T13:11:53.725Z,100998.44
2023-08-11T13:14:21.036Z,100990.16
2023-08-11T13:16:47.323Z,100979.56
2023-08-11T13:19:14.541Z,100993.34
2023-08-11T13:21:40.948Z,100993.25
2023-08-11T13:24:07.287Z,100988.16
2023-08-11T13:26:33.537Z,100980.81
2023-08-11T13:28:59.781Z,100966.03
2023-08-11T13:31:26.155Z,100969.91
2023-08-11T13:33:52.528Z,100963.78
2023-08-11T13:36:18.792Z,100957.94
2023-08-11T13:38:45.057Z,100963.28
2023-08-11T13:41:11.395Z,100966.47
2023-08-11T13:43:37.730Z,100971.91
2023-08-11T13:46:04.023Z,100958.16
2023-08-11T13:48:31.024Z,100956.97
2023-08-11T13:50:57.318Z,100951.53
2023-08-11T13:53:23.552Z,100945.16
2023-08-11T13:55:49.770Z,100949.34
2023-08-11T13:58:16.037Z,100950.72
2023-08-11T14:00:42.240Z,100934.09
2023-08-11T14:03:08.726Z,100939.84
2023-08-11T14:05:34.976Z,100939.38
2023-08-11T14:08:01.269Z,100921.94
2023-08-11T14:10:27.535Z,100928.38
2023-08-11T14:12:53.775Z,100926.16
2023-08-11T14:15:20.075Z,100914.81
2023-08-11T14:17:46.377Z,100917.75
2023-08-11T14:20:12.710Z,100931.66
2023-08-11T14:22:38.969Z,100924.88
2023-08-11T14:25:05.235Z,100909.41
2023-08-11T14:27:31.545Z,100913.59
2023-08-11T14:29:57.777Z,100923.94
2023-08-11T14:32:26.231Z,100916.66
2023-08-11T14:34:53.036Z,100910.72
2023-08-11T14:37:19.263Z,100899.50
2023-08-11T14:39:45.530Z,100891.34
2023-08-11T14:42:12.927Z,100891.59
2023-08-11T14:44:39.192Z,100884.06
2023-08-11T14:47:05.522Z,100895.25
2023-08-11T14:49:31.909Z,100873.75
2023-08-11T14:51:58.189Z,100874.81
2023-08-11T14:54:27.451Z,100875.09
2023-08-11T14:56:54.239Z,100872.63
2023-08-11T14:59:20.506Z,100871.19
2023-08-11T15:01:46.752Z,100868.25
2023-08-11T15:04:12.986Z,100870.75
2023-08-11T15:06:39.243Z,100866.97
2023-08-11T15:09:05.607Z,100860.91
2023-08-11T15:11:31.958Z,100871.09
2023-08-11T15:13:58.302Z,100856.25
2023-08-11T15:16:24.630Z,100859.59
2023-08-11T15:18:50.957Z,100861.66
2023-08-11T15:21:17.214Z,100865.41
2023-08-11T15:23:43.427Z,100864.78
2023-08-11T15:26:09.792Z,100864.78
2023-08-11T15:28:36.142Z,100868.97
2023-08-11T15:31:02.528Z,100868.31
2023-08-11T15:33:28.855Z,100851.47
2023-08-11T15:35:55.158Z,100849.19
2023-08-11T15:38:22.766Z,100832.34
2023-08-11T15:40:49.287Z,100842.34
2023-08-11T15:43:15.591Z,100836.09
2023-08-11T15:45:42.095Z,100846.03
2023-08-11T15:48:08.351Z,100839.28
2023-08-11T15:50:34.628Z,100836.56
2023-08-11T15:53:00.859Z,100835.78
2023-08-11T15:55:36.025Z,100824.31
2023-08-11T15:58:02.762Z,100838.25
2023-08-11T16:00:29.105Z,100827.53
2023-08-11T16:02:55.457Z,100821.53
2023-08-11T16:05:21.908Z,100829.56
2023-08-11T16:07:48.102Z,100831.88
2023-08-11T16:10:14.326Z,100826.03
2023-08-11T16:12:40.574Z,100819.66
2023-08-11T16:15:06.836Z,100823.34
2023-08-11T16:17:33.073Z,100830.66
2023-08-11T16:19:59.531Z,100832.16
2023-08-11T16:22:25.799Z,100817.13
2023-08-11T16:24:52.063Z,100820.84
2023-08-11T16:27:18.309Z,100810.75
2023-08-11T16:29:44.572Z,100813.97
2023-08-11T16:32:11.257Z,100818.53
2023-08-11T16:34:37.674Z,100809.63
2023-08-11T16:37:03.926Z,100814.56
2023-08-11T16:39:30.154Z,100807.56
2023-08-11T16:41:56.392Z,100813.84
2023-08-11T16:44:22.629Z,100811.28
2023-08-11T16:46:48.886Z,100802.03
2023-08-11T16:49:15.102Z,100815.34
2023-08-11T16:51:41.340Z,100817.72
2023-08-11T16:54:07.559Z,100814.59
2023-08-11T16:56:33.805Z,100803.44
2023-08-11T16:59:00.058Z,100828.81
2023-08-11T17:01:26.493Z,100821.22
2023-08-11T17:03:52.869Z,100820.59
2023-08-11T17:06:19.157Z,100820.81
2023-08-11T17:08:45.403Z,100822.25
2023-08-11T17:11:11.640Z,100829.09
2023-08-11T17:13:37.852Z,100827.13
2023-08-11T17:16:04.149Z,100827.94
2023-08-11T17:18:30.407Z,100823.59
2023-08-11T17:20:56.700Z,100819.78
2023-08-11T17:23:25.399Z,100822.22
2023-08-11T17:25:51.629Z,100822.47
2023-08-11T17:28:17.917Z,100828.44
2023-08-11T17:30:44.159Z,100829.03
2023-08-11T17:33:10.420Z,100830.63
2023-08-11T17:35:36.754Z,100818.81
2023-08-11T17:38:02.970Z,100827.84
2023-08-11T17:40:29.227Z,100837.69
2023-08-11T17:42:55.473Z,100829.34
2023-08-11T17:45:21.793Z,100829.59
2023-08-11T17:47:48.079Z,100831.03
2023-08-11T17:50:14.583Z,100834.75
2023-08-11T17:52:41.112Z,100838.19
2023-08-11T17:55:07.347Z,100843.56
2023-08-11T17:57:33.559Z,100823.66
2023-08-11T17:59:59.902Z,100836.75
2023-08-11T18:02:26.163Z,100823.06
2023-08-11T18:04:52.415Z,100832.59
2023-08-11T18:07:18.721Z,100832.41
2023-08-11T18:09:45.000Z,100832.94
2023-08-11T18:12:11.544Z,100831.41
2023-08-11T18:14:37.914Z,100840.13
2023-08-11T18:17:04.396Z,100836.41
2023-08-11T18:19:30.784Z,100840.72
2023-08-11T18:21:57.050Z,100845.03
2023-08-11T18:24:23.340Z,100846.50
2023-08-11T18:26:49.668Z,100840.13
2023-08-11T18:29:16.023Z,100837.56
2023-08-11T18:31:42.377Z,100838.41
2023-08-11T18:34:08.811Z,100837.50
2023-08-11T18:36:35.006Z,100855.63
2023-08-11T18:39:01.305Z,100854.22
2023-08-11T18:41:27.577Z,100854.50
2023-08-11T18:43:53.880Z,100859.56
2023-08-11T18:46:20.328Z,100861.00
2023-08-11T18:48:46.599Z,100860.38
2023-08-11T18:51:12.851Z,100850.47
2023-08-11T18:53:39.126Z,100862.38
2023-08-11T18:56:05.407Z,100861.22
2023-08-11T18:58:31.649Z,100863.75
2023-08-11T19:00:57.908Z,100870.41
2023-08-11T19:03:24.324Z,100863.22
2023-08-11T19:05:50.640Z,100866.34
2023-08-11T19:08:16.847Z,100866.41
2023-08-11T19:10:43.132Z,100873.91
2023-08-11T19:13:09.379Z,100871.41
2023-08-11T19:15:38.789Z,100866.25
2023-08-11T19:18:05.044Z,100880.03
2023-08-11T19:20:31.491Z,100867.00
2023-08-11T19:22:57.752Z,100873.03
2023-08-11T19:25:24.231Z,100884.84
2023-08-11T19:27:50.644Z,100880.25
2023-08-11T19:30:30.410Z,100879.56
2023-08-11T19:32:56.877Z,100879.47
2023-08-11T19:35:23.210Z,100882.38
2023-08-11T19:37:49.444Z,100885.03
2023-08-11T19:40:15.790Z,100886.44
2023-08-11T19:42:42.129Z,100880.97
2023-08-11T19:45:08.368Z,100881.41
2023-08-11T19:47:34.943Z,100884.75
2023-08-11T19:50:01.220Z,100885.16
2023-08-11T19:52:27.466Z,100883.91
2023-08-11T19:54:53.743Z,100879.84
2023-08-11T19:57:20.158Z,100889.22
2023-08-11T19:59:46.470Z,100892.31
2023-08-11T20:02:12.701Z,100892.56
2023-08-11T20:04:38.997Z,100883.19
2023-08-11T20:07:05.272Z,100890.59
2023-08-11T20:09:33.310Z,100890.88
2023-08-11T20:12:04.139Z,100888.03
2023-08-11T20:14:30.471Z,100886.88
2023-08-11T20:16:56.695Z,100883.78
2023-08-11T20:19:22.951Z,100884.59
2023-08-11T20:21:49.187Z,100885.84
2023-08-11T20:24:15.452Z,100883.84
2023-08-11T20:26:41.820Z,100871.97
2023-08-11T20:29:08.278Z,100878.63
2023-08-11T20:31:34.636Z,100881.97
2023-08-11T20:34:00.864Z,100883.47
2023-08-11T20:36:27.174Z,100885.69
2023-08-11T20:38:53.445Z,100881.59
2023-08-11T20:41:20.823Z,100885.25
2023-08-11T20:43:49.373Z,100883.19
2023-08-11T20:46:16.068Z,100880.94
2023-08-11T20:48:42.374Z,100887.47
2023-08-11T20:51:08.578Z,100885.34
2023-08-11T20:53:34.869Z,100879.47
2023-08-11T20:56:01.101Z,100874.41
2023-08-11T20:58:27.389Z,100874.09
2023-08-11T21:00:53.679Z,100870.59
2023-08-11T21:03:19.918Z,100870.84
2023-08-11T21:05:46.211Z,100873.66
2023-08-11T21:08:12.413Z,100875.13
2023-08-11T21:10:38.825Z,100878.19
2023-08-11T21:13:05.080Z,100881.91
2023-08-11T21:15:31.419Z,100882.31
2023-08-11T21:17:57.704Z,100886.44
2023-08-11T21:20:23.961Z,100887.41
2023-08-11T21:22:50.183Z,100885.03
2023-08-11T21:25:16.433Z,100886.09
2023-08-11T21:27:42.708Z,100882.72
2023-08-11T21:30:08.955Z,100879.38
2023-08-11T21:32:35.219Z,100857.84
2023-08-11T21:35:01.527Z,100879.13
2023-08-11T21:37:27.808Z,100884.56
2023-08-11T21:39:54.005Z,100878.91
2023-08-11T21:42:20.290Z,100879.03
2023-08-11T21:44:46.561Z,100879.16
2023-08-11T21:47:13.060Z,100873.28
2023-08-11T21:49:40.964Z,100876.06
2023-08-11T21:52:08.378Z,100876.69
2023-08-11T21:54:34.583Z,100871.53
2023-08-11T21:57:00.789Z,100870.06
2023-08-11T21:59:28.092Z,100873.81
2023-08-11T22:01:54.362Z,100870.81
2023-08-11T22:04:20.624Z,100869.41
2023-08-11T22:06:46.841Z,100877.59
2023-08-11T22:09:13.083Z,100875.16
2023-08-11T22:11:39.387Z,100878.06
2023-08-11T22:14:05.684Z,100872.31
2023-08-11T22:16:31.998Z,100866.53
2023-08-11T22:18:58.349Z,100874.34
2023-08-11T22:21:24.627Z,100870.41
2023-08-11T22:23:50.880Z,100868.81
2023-08-11T22:26:17.129Z,100871.72
2023-08-11T22:28:43.381Z,100877.16
2023-08-11T22:31:09.772Z,100877.63
2023-08-11T22:33:36.108Z,100879.53
2023-08-11T22:36:02.365Z,100876.28
2023-08-11T22:38:28.616Z,100876.16
2023-08-11T22:40:54.833Z,100878.09
2023-08-11T22:43:21.063Z,100879.31
2023-08-11T22:45:48.354Z,100881.94
2023-08-11T22:48:14.660Z,100875.06
2023-08-11T22:50:40.958Z,100873.66
2023-08-11T22:53:07.185Z,100874.59
2023-08-11T22:55:33.467Z,100869.31
2023-08-11T22:57:59.728Z,100868.34
2023-08-11T23:00:26.008Z,100858.59
2023-08-11T23:02:52.300Z,100856.78
2023-08-11T23:05:18.546Z,100870.88
2023-08-11T23:07:44.754Z,100860.50
2023-08-11T23:10:11.030Z,100865.31
2023-08-11T23:12:37.279Z,100868.81
2023-08-11T23:15:03.487Z,100855.59
2023-08-11T23:17:29.782Z,100854.16
2023-08-11T23:19:56.019Z,100855.94
2023-08-11T23:22:22.304Z,100849.06
2023-08-11T23:24:48.553Z,100841.50
2023-08-11T23:27:14.774Z,100843.19
2023-08-11T23:29:41.002Z,100839.34
2023-08-11T23:32:07.225Z,100820.91
2023-08-11T23:34:33.523Z,100837.88
2023-08-11T23:36:59.733Z,100836.91
2023-08-11T23:39:25.950Z,100837.88
2023-08-11T23:41:52.139Z,100828.16
2023-08-11T23:44:18.397Z,100830.06
2023-08-11T23:46:44.657Z,100833.69
2023-08-11T23:49:10.890Z,100831.88
2023-08-11T23:51:37.181Z,100827.56
2023-08-11T23:54:03.411Z,100822.25
2023-08-11T23:56:29.616Z,100826.69
2023-08-11T23:58:55.827Z,100822.38
